createdAt,value
2018-11-02T00:00:10.384Z,8.03
2018-11-02T00:02:39.478Z,7.50
2018-11-02T00:05:08.387Z,7.00
2018-11-02T00:07:37.171Z,6.30
2018-11-02T00:10:06.420Z,5.90
2018-11-02T00:12:35.528Z,6.20
2018-11-02T00:15:04.661Z,6.07
2018-11-02T00:17:33.536Z,5.27
2018-11-02T00:20:02.650Z,3.73
2018-11-02T00:22:31.425Z,2.50
2018-11-02T00:25:00.236Z,1.67
2018-11-02T00:27:29.114Z,2.40
2018-11-02T00:29:57.936Z,2.10
2018-11-02T00:32:26.841Z,1.73
2018-11-02T00:34:55.709Z,1.53
2018-11-02T00:37:24.731Z,1.50
2018-11-02T00:39:53.515Z,1.30
2018-11-02T00:42:22.313Z,1.50
2018-11-02T00:44:51.085Z,1.23
2018-11-02T00:47:19.871Z,1.40
2018-11-02T00:49:48.681Z,1.20
2018-11-02T00:52:17.520Z,1.33
2018-11-02T00:54:46.628Z,1.30
2018-11-02T00:57:15.468Z,1.47
2018-11-02T00:59:44.294Z,1.60
2018-11-02T01:02:13.055Z,1.80
2018-11-02T01:04:41.969Z,1.77
2018-11-02T01:07:10.720Z,1.70
2018-11-02T01:09:39.508Z,1.60
2018-11-02T01:12:08.480Z,1.60
2018-11-02T01:14:37.889Z,1.83
2018-11-02T01:17:07.888Z,1.70
2018-11-02T01:19:37.225Z,1.57
2018-11-02T01:22:07.718Z,1.50
2018-11-02T01:24:38.041Z,1.90
2018-11-02T01:27:08.113Z,1.77
2018-11-02T01:29:44.674Z,1.63
2018-11-02T01:32:13.802Z,1.70
2018-11-02T01:34:43.045Z,1.90
2018-11-02T01:37:12.302Z,2.00
2018-11-02T01:39:41.512Z,2.10
2018-11-02T01:42:14.846Z,1.83
2018-11-02T01:44:44.363Z,1.90
2018-11-02T01:47:17.762Z,2.47
2018-11-02T01:49:47.799Z,2.77
2018-11-02T01:52:19.681Z,2.60
2018-11-02T01:54:49.944Z,2.60
2018-11-02T01:57:19.531Z,2.73
2018-11-02T01:59:51.460Z,3.40
2018-11-02T02:02:21.765Z,4.23
2018-11-02T02:04:54.500Z,3.80
2018-11-02T02:07:24.114Z,4.30
2018-11-02T02:09:52.996Z,4.10
2018-11-02T02:12:21.864Z,4.70
2018-11-02T02:14:50.661Z,4.20
2018-11-02T02:17:19.482Z,4.87
2018-11-02T02:19:48.369Z,5.40
2018-11-02T02:22:17.236Z,4.30
2018-11-02T02:24:46.053Z,4.70
2018-11-02T02:27:14.851Z,4.57
2018-11-02T02:29:43.846Z,4.70
2018-11-02T02:32:13.729Z,3.80
2018-11-02T02:34:42.600Z,3.90
2018-11-02T02:37:12.624Z,4.43
2018-11-02T02:39:41.454Z,4.00
2018-11-02T02:42:10.225Z,4.30
2018-11-02T02:44:39.971Z,3.93
2018-11-02T02:47:08.968Z,4.17
2018-11-02T02:49:37.712Z,4.23
2018-11-02T02:52:06.617Z,4.50
2018-11-02T02:54:35.475Z,4.27
2018-11-02T02:57:04.473Z,4.20
2018-11-02T02:59:33.755Z,4.00
2018-11-02T03:02:02.592Z,4.40
2018-11-02T03:04:31.462Z,4.53
2018-11-02T03:07:00.396Z,4.70
2018-11-02T03:09:29.299Z,4.63
2018-11-02T03:11:58.089Z,5.00
2018-11-02T03:14:26.892Z,4.57
2018-11-02T03:16:55.788Z,4.83
2018-11-02T03:19:25.117Z,4.70
2018-11-02T03:21:53.927Z,4.50
2018-11-02T03:24:22.744Z,4.80
2018-11-02T03:26:51.625Z,4.50
2018-11-02T03:29:20.476Z,4.93
2018-11-02T03:31:49.372Z,4.97
2018-11-02T03:34:18.180Z,4.37
2018-11-02T03:36:46.960Z,4.47
2018-11-02T03:39:15.819Z,4.80
2018-11-02T03:41:44.632Z,4.17
2018-11-02T03:44:14.023Z,4.83
2018-11-02T03:46:42.828Z,5.10
2018-11-02T03:49:12.353Z,5.37
2018-11-02T03:51:41.232Z,4.90
2018-11-02T03:54:10.916Z,4.90
2018-11-02T03:56:39.727Z,5.13
2018-11-02T03:59:09.257Z,4.53
2018-11-02T04:01:38.241Z,4.60
2018-11-02T04:04:07.048Z,4.63
2018-11-02T04:06:35.922Z,4.53
2018-11-02T04:09:06.376Z,4.87
2018-11-02T04:11:35.312Z,4.50
2018-11-02T04:14:04.140Z,4.83
2018-11-02T04:16:33.096Z,4.40
2018-11-02T04:19:01.944Z,4.30
2018-11-02T04:21:34.989Z,4.70
2018-11-02T04:24:03.779Z,4.20
2018-11-02T04:26:32.989Z,4.33
2018-11-02T04:29:01.768Z,4.43
2018-11-02T04:31:30.681Z,4.73
2018-11-02T04:33:59.520Z,4.63
2018-11-02T04:36:34.572Z,4.27
2018-11-02T04:39:03.536Z,4.43
2018-11-02T04:41:32.397Z,4.40
2018-11-02T04:44:08.580Z,4.20
2018-11-02T04:46:39.088Z,4.07
2018-11-02T04:49:08.329Z,4.97
2018-11-02T04:51:37.357Z,4.60
2018-11-02T04:54:06.219Z,4.47
2018-11-02T04:56:35.044Z,4.87
2018-11-02T04:59:03.831Z,4.73
2018-11-02T05:01:32.626Z,4.80
2018-11-02T05:04:01.410Z,4.63
2018-11-02T05:06:30.220Z,4.90
2018-11-02T05:08:59.007Z,4.40
2018-11-02T05:11:27.851Z,5.00
2018-11-02T05:13:56.588Z,4.30
2018-11-02T05:16:25.383Z,4.17
2018-11-02T05:18:54.256Z,5.00
2018-11-02T05:21:23.092Z,4.63
2018-11-02T05:23:51.900Z,4.43
2018-11-02T05:26:20.716Z,4.03
2018-11-02T05:28:49.548Z,4.30
2018-11-02T05:31:18.681Z,3.80
2018-11-02T05:33:47.415Z,4.13
2018-11-02T05:36:16.504Z,3.73
2018-11-02T05:38:45.255Z,4.50
2018-11-02T05:41:14.054Z,4.23
2018-11-02T05:43:44.777Z,4.27
2018-11-02T05:46:13.554Z,4.63
2018-11-02T05:48:42.340Z,3.97
2018-11-02T05:51:11.169Z,4.70
2018-11-02T05:53:39.961Z,5.57
2018-11-02T05:56:15.327Z,4.90
2018-11-02T05:58:44.053Z,4.97
2018-11-02T06:01:12.853Z,4.17
2018-11-02T06:03:41.611Z,4.70
2018-11-02T06:06:10.589Z,4.90
2018-11-02T06:08:39.481Z,4.97
2018-11-02T06:11:08.602Z,4.50
2018-11-02T06:13:37.376Z,5.27
2018-11-02T06:16:06.151Z,6.23
2018-11-02T06:18:34.914Z,6.47
2018-11-02T06:21:34.908Z,7.23
2018-11-02T06:24:03.829Z,9.70
2018-11-02T06:26:32.589Z,9.10
2018-11-02T06:29:01.364Z,9.40
2018-11-02T06:31:30.131Z,10.80
2018-11-02T06:33:59.002Z,10.30
2018-11-02T06:36:27.821Z,9.50
2018-11-02T06:38:56.640Z,8.33
2018-11-02T06:41:25.347Z,8.83
2018-11-02T06:43:54.100Z,8.40
2018-11-02T06:46:22.876Z,10.47
2018-11-02T06:48:51.739Z,8.60
2018-11-02T06:51:20.487Z,15.80
2018-11-02T06:53:49.268Z,9.83
2018-11-02T06:56:18.040Z,23.30
2018-11-02T06:58:46.966Z,16.37
2018-11-02T07:01:15.805Z,9.00
2018-11-02T07:03:44.687Z,8.77
2018-11-02T07:06:13.455Z,7.77
2018-11-02T07:08:42.354Z,8.03
2018-11-02T07:11:11.142Z,7.00
2018-11-02T07:13:39.913Z,7.60
2018-11-02T07:16:08.696Z,10.47
2018-11-02T07:18:37.471Z,20.77
2018-11-02T07:21:06.289Z,32.47
2018-11-02T07:23:35.062Z,24.07
2018-11-02T07:26:03.882Z,10.90
2018-11-02T07:28:32.653Z,11.10
2018-11-02T07:31:01.432Z,9.93
2018-11-02T07:33:30.212Z,12.03
2018-11-02T07:35:59.009Z,10.23
2018-11-02T07:38:27.764Z,13.33
2018-11-02T07:40:56.523Z,26.50
2018-11-02T07:43:25.424Z,21.17
2018-11-02T07:45:54.204Z,33.00
2018-11-02T07:48:22.979Z,23.20
2018-11-02T07:50:51.747Z,25.77
2018-11-02T07:53:20.543Z,14.53
2018-11-02T07:55:49.316Z,12.03
2018-11-02T07:58:18.087Z,11.67
2018-11-02T08:00:46.843Z,12.93
2018-11-02T08:03:15.692Z,13.67
2018-11-02T08:05:44.447Z,17.70
2018-11-02T08:08:13.239Z,15.60
2018-11-02T08:10:41.991Z,15.20
2018-11-02T08:13:10.760Z,16.23
2018-11-02T08:15:39.540Z,13.50
2018-11-02T08:18:08.320Z,10.63
2018-11-02T08:20:37.116Z,7.97
2018-11-02T08:23:05.928Z,7.93
2018-11-02T08:25:34.689Z,7.67
2018-11-02T08:28:03.476Z,7.87
2018-11-02T08:30:32.286Z,7.63
2018-11-02T08:33:01.077Z,6.37
2018-11-02T08:35:29.847Z,5.20
2018-11-02T08:37:58.635Z,6.20
2018-11-02T08:40:27.393Z,5.87
2018-11-02T08:42:56.184Z,5.97
2018-11-02T08:45:24.968Z,5.77
2018-11-02T08:47:53.744Z,5.10
2018-11-02T08:50:22.496Z,4.80
2018-11-02T08:52:51.268Z,5.20
2018-11-02T08:55:20.033Z,6.03
2018-11-02T08:57:48.904Z,5.50
2018-11-02T09:00:17.715Z,5.40
2018-11-02T09:02:46.404Z,5.37
2018-11-02T09:05:15.167Z,5.00
2018-11-02T09:07:43.948Z,5.03
2018-11-02T09:10:12.875Z,6.17
2018-11-02T09:12:41.652Z,5.20
2018-11-02T09:15:10.411Z,6.13
2018-11-02T09:17:39.184Z,5.17
2018-11-02T09:20:07.950Z,5.00
2018-11-02T09:22:36.747Z,4.80
2018-11-02T09:25:07.781Z,4.80
2018-11-02T09:27:36.655Z,4.53
2018-11-02T09:30:09.321Z,4.30
2018-11-02T09:32:38.136Z,4.73
2018-11-02T09:35:06.929Z,4.37
2018-11-02T09:37:35.711Z,4.53
2018-11-02T09:40:05.942Z,5.10
2018-11-02T09:42:34.747Z,5.20
2018-11-02T09:45:03.518Z,4.33
2018-11-02T09:47:32.307Z,5.43
2018-11-02T09:50:01.117Z,4.60
2018-11-02T09:52:29.885Z,5.23
2018-11-02T09:54:58.667Z,5.00
2018-11-02T09:57:27.723Z,4.80
2018-11-02T09:59:57.533Z,4.67
2018-11-02T10:02:26.316Z,6.93
2018-11-02T10:04:55.063Z,6.07
2018-11-02T10:07:23.855Z,4.80
2018-11-02T10:09:52.612Z,4.97
2018-11-02T10:12:21.483Z,4.50
2018-11-02T10:14:50.240Z,4.23
2018-11-02T10:17:19.040Z,4.70
2018-11-02T10:19:47.815Z,4.83
2018-11-02T10:22:16.591Z,4.80
2018-11-02T10:24:45.500Z,4.73
2018-11-02T10:27:14.281Z,5.37
2018-11-02T10:29:43.040Z,5.63
2018-11-02T10:32:11.896Z,4.60
2018-11-02T10:34:40.717Z,5.17
2018-11-02T10:37:09.504Z,4.50
2018-11-02T10:39:38.299Z,4.33
2018-11-02T10:42:08.709Z,5.67
2018-11-02T10:44:45.130Z,5.40
2018-11-02T10:47:14.265Z,3.53
2018-11-02T10:49:43.045Z,2.83
2018-11-02T10:52:11.820Z,2.70
2018-11-02T10:54:40.683Z,2.97
2018-11-02T10:57:09.348Z,3.33
2018-11-02T10:59:38.136Z,3.33
2018-11-02T11:02:06.952Z,2.63
2018-11-02T11:04:36.170Z,2.70
2018-11-02T11:07:05.305Z,4.33
2018-11-02T11:09:34.101Z,2.30
2018-11-02T11:12:02.947Z,1.90
2018-11-02T11:14:31.803Z,2.40
2018-11-02T11:17:00.600Z,2.20
2018-11-02T11:19:29.392Z,3.83
2018-11-02T11:21:58.176Z,2.03
2018-11-02T11:24:26.991Z,2.40
2018-11-02T11:26:55.867Z,2.10
2018-11-02T11:29:24.714Z,3.57
2018-11-02T11:31:53.477Z,6.00
2018-11-02T11:34:22.276Z,5.57
2018-11-02T11:36:51.044Z,3.07
2018-11-02T11:39:19.861Z,3.27
2018-11-02T11:41:48.693Z,2.60
2018-11-02T11:44:17.489Z,5.33
2018-11-02T11:46:46.352Z,5.70
2018-11-02T11:49:15.228Z,6.40
2018-11-02T11:51:43.884Z,3.60
2018-11-02T11:54:12.684Z,3.37
2018-11-02T11:56:41.443Z,3.93
2018-11-02T11:59:10.255Z,3.97
2018-11-02T12:01:39.057Z,6.67
2018-11-02T12:04:07.874Z,8.03
2018-11-02T12:06:36.847Z,4.03
2018-11-02T12:09:06.244Z,5.57
2018-11-02T12:11:35.065Z,3.30
2018-11-02T12:14:03.817Z,3.67
2018-11-02T12:16:32.612Z,3.67
2018-11-02T12:19:01.428Z,3.47
2018-11-02T12:21:30.233Z,3.67
2018-11-02T12:23:59.027Z,3.20
2018-11-02T12:26:27.803Z,3.20
2018-11-02T12:28:56.704Z,2.97
2018-11-02T12:31:25.411Z,3.37
2018-11-02T12:33:54.228Z,3.00
2018-11-02T12:36:22.998Z,4.03
2018-11-02T12:38:51.792Z,3.60
2018-11-02T12:41:20.659Z,3.37
2018-11-02T12:43:49.547Z,2.63
2018-11-02T12:46:19.064Z,2.67
2018-11-02T12:48:48.539Z,3.00
2018-11-02T12:51:17.133Z,2.87
2018-11-02T12:53:45.904Z,2.43
2018-11-02T12:56:14.727Z,2.63
2018-11-02T12:58:43.511Z,2.80
2018-11-02T13:01:12.300Z,2.67
2018-11-02T13:03:41.068Z,2.40
2018-11-02T13:06:09.922Z,3.03
2018-11-02T13:08:38.692Z,4.00
2018-11-02T13:11:07.528Z,3.40
2018-11-02T13:13:36.323Z,3.50
2018-11-02T13:16:05.294Z,3.20
2018-11-02T13:18:33.967Z,4.23
2018-11-02T13:21:02.800Z,5.70
2018-11-02T13:23:31.568Z,4.17
2018-11-02T13:26:00.497Z,4.03
2018-11-02T13:28:29.217Z,4.50
2018-11-02T13:30:58.126Z,3.23
2018-11-02T13:33:26.784Z,6.10
2018-11-02T13:35:55.584Z,4.20
2018-11-02T13:38:24.360Z,14.47
2018-11-02T13:40:53.175Z,14.03
2018-11-02T13:43:22.033Z,9.53
2018-11-02T13:45:50.791Z,10.83
2018-11-02T13:48:19.609Z,7.80
2018-11-02T13:50:48.384Z,6.80
2018-11-02T13:53:17.164Z,5.10
2018-11-02T13:55:45.923Z,5.40
2018-11-02T13:58:14.695Z,7.73
2018-11-02T14:00:43.459Z,6.63
2018-11-02T14:03:12.225Z,7.47
2018-11-02T14:05:40.999Z,5.60
2018-11-02T14:08:09.820Z,6.47
2018-11-02T14:10:38.571Z,7.70
2018-11-02T14:13:07.355Z,8.77
2018-11-02T14:15:36.145Z,7.77
2018-11-02T14:18:05.047Z,8.13
2018-11-02T14:20:33.824Z,9.03
2018-11-02T14:23:02.608Z,6.23
2018-11-02T14:25:31.388Z,5.37
2018-11-02T14:28:00.163Z,4.57
2018-11-02T14:30:28.947Z,4.30
2018-11-02T14:32:57.776Z,4.67
2018-11-02T14:35:26.536Z,4.47
2018-11-02T14:37:55.303Z,3.90
2018-11-02T14:40:24.068Z,4.53
2018-11-02T14:42:52.877Z,4.07
2018-11-02T14:45:21.639Z,4.30
2018-11-02T14:47:50.421Z,4.40
2018-11-02T14:50:19.162Z,3.90
2018-11-02T14:52:47.938Z,4.07
2018-11-02T14:55:16.680Z,3.60
2018-11-02T14:57:45.473Z,3.60
2018-11-02T15:00:14.259Z,3.77
2018-11-02T15:02:43.004Z,3.60
2018-11-02T15:05:13.012Z,4.20
2018-11-02T15:07:42.423Z,4.57
2018-11-02T15:10:11.264Z,14.00
2018-11-02T15:12:40.329Z,5.80
2018-11-02T15:15:09.452Z,4.60
2018-11-02T15:17:38.375Z,7.00
2018-11-02T15:20:09.141Z,8.87
2018-11-02T15:22:37.897Z,7.33
2018-11-02T15:25:06.971Z,5.57
2018-11-02T15:27:35.759Z,6.47
2018-11-02T15:30:06.401Z,6.00
2018-11-02T15:32:35.336Z,5.93
2018-11-02T15:35:05.195Z,6.00
2018-11-02T15:37:33.971Z,6.30
2018-11-02T15:40:02.748Z,6.00
2018-11-02T15:42:31.521Z,5.73
2018-11-02T15:45:00.485Z,5.70
2018-11-02T15:47:29.308Z,5.80
2018-11-02T15:49:58.079Z,5.80
2018-11-02T15:52:26.844Z,6.17
2018-11-02T15:54:55.588Z,7.10
2018-11-02T15:57:24.473Z,7.73
2018-11-02T15:59:53.268Z,7.90
2018-11-02T16:02:22.027Z,7.13
2018-11-02T16:04:50.820Z,7.27
2018-11-02T16:07:19.608Z,6.27
2018-11-02T16:09:48.385Z,7.07
2018-11-02T16:12:17.180Z,7.50
2018-11-02T16:14:45.944Z,8.67
2018-11-02T16:17:14.730Z,9.97
2018-11-02T16:19:43.495Z,8.73
2018-11-02T16:22:12.475Z,8.00
2018-11-02T16:24:41.241Z,9.17
2018-11-02T16:27:10.113Z,8.27
2018-11-02T16:29:38.880Z,8.37
2018-11-02T16:32:07.659Z,10.27
2018-11-02T16:34:36.428Z,13.73
2018-11-02T16:37:05.501Z,13.93
2018-11-02T16:39:34.255Z,10.70
2018-11-02T16:42:03.051Z,8.93
2018-11-02T16:44:31.897Z,9.63
2018-11-02T16:47:00.655Z,9.37
2018-11-02T16:49:29.440Z,8.60
2018-11-02T16:51:58.312Z,43.63
2018-11-02T16:54:27.154Z,21.53
2018-11-02T16:56:55.863Z,21.20
2018-11-02T16:59:24.655Z,14.60
2018-11-02T17:01:53.420Z,12.70
2018-11-02T17:04:22.287Z,11.23
2018-11-02T17:06:51.060Z,8.93
2018-11-02T17:09:19.842Z,7.40
2018-11-02T17:11:48.605Z,7.70
2018-11-02T17:14:17.435Z,7.00
2018-11-02T17:16:46.212Z,7.20
2018-11-02T17:19:15.012Z,8.07
2018-11-02T17:21:43.825Z,7.47
2018-11-02T17:24:12.593Z,8.07
2018-11-02T17:26:41.380Z,9.37
2018-11-02T17:29:10.216Z,7.60
2018-11-02T17:31:38.972Z,6.43
2018-11-02T17:34:07.765Z,6.57
2018-11-02T17:36:36.591Z,10.23
2018-11-02T17:39:08.025Z,7.13
2018-11-02T17:41:36.938Z,7.83
2018-11-02T17:44:06.247Z,6.40
2018-11-02T17:46:35.123Z,6.87
2018-11-02T17:49:04.080Z,6.57
2018-11-02T17:51:32.847Z,6.33
2018-11-02T17:54:01.628Z,7.10
2018-11-02T17:56:30.392Z,6.47
2018-11-02T17:58:59.172Z,6.87
2018-11-02T18:01:27.997Z,8.23
2018-11-02T18:03:56.767Z,7.17
2018-11-02T18:06:25.516Z,6.13
2018-11-02T18:08:54.419Z,7.93
2018-11-02T18:11:23.164Z,7.60
2018-11-02T18:13:51.943Z,7.23
2018-11-02T18:16:20.702Z,6.50
2018-11-02T18:18:49.578Z,6.63
2018-11-02T18:21:18.247Z,6.17
2018-11-02T18:23:47.068Z,7.27
2018-11-02T18:26:15.828Z,8.53
2018-11-02T18:28:44.611Z,9.57
2018-11-02T18:31:13.403Z,10.93
2018-11-02T18:33:42.955Z,9.50
2018-11-02T18:36:11.732Z,11.70
2018-11-02T18:38:40.521Z,11.20
2018-11-02T18:41:09.345Z,10.57
2018-11-02T18:43:38.143Z,18.17
2018-11-02T18:46:06.957Z,24.53
2018-11-02T18:48:35.740Z,30.87
2018-11-02T18:51:04.677Z,33.53
2018-11-02T18:53:33.471Z,26.93
2018-11-02T18:56:02.248Z,23.23
2018-11-02T18:58:31.031Z,19.33
2018-11-02T19:00:59.808Z,17.33
2018-11-02T19:03:28.584Z,18.37
2018-11-02T19:05:57.348Z,20.27
2018-11-02T19:08:26.132Z,29.93
2018-11-02T19:10:54.936Z,29.87
2018-11-02T19:13:23.849Z,13.00
2018-11-02T19:15:52.562Z,13.10
2018-11-02T19:18:21.317Z,14.20
2018-11-02T19:20:50.099Z,15.73
2018-11-02T19:23:18.887Z,15.20
2018-11-02T19:25:47.657Z,13.83
2018-11-02T19:28:16.456Z,12.70
2018-11-02T19:30:45.283Z,12.80
2018-11-02T19:33:14.084Z,12.57
2018-11-02T19:35:42.870Z,11.90
2018-11-02T19:38:11.947Z,13.00
2018-11-02T19:40:40.455Z,31.90
2018-11-02T19:43:09.245Z,18.80
2018-11-02T19:45:38.040Z,12.23
2018-11-02T19:48:07.160Z,12.10
2018-11-02T19:50:35.960Z,33.73
2018-11-02T19:53:04.867Z,56.83
2018-11-02T19:55:33.648Z,29.93
2018-11-02T19:58:02.505Z,13.47
2018-11-02T20:00:31.272Z,13.60
2018-11-02T20:03:00.307Z,19.27
2018-11-02T20:05:29.068Z,15.80
2018-11-02T20:07:57.837Z,12.80
2018-11-02T20:10:26.620Z,11.60
2018-11-02T20:12:55.391Z,10.60
2018-11-02T20:15:24.180Z,10.37
2018-11-02T20:17:53.177Z,9.83
2018-11-02T20:20:21.877Z,9.97
2018-11-02T20:22:50.644Z,9.10
2018-11-02T20:25:19.420Z,10.13
2018-11-02T20:27:48.205Z,9.40
2018-11-02T20:30:19.195Z,9.43
2018-11-02T20:32:47.981Z,10.03
2018-11-02T20:35:16.776Z,11.13
2018-11-02T20:37:45.871Z,9.93
2018-11-02T20:40:16.367Z,10.30
2018-11-02T20:42:45.544Z,10.77
2018-11-02T20:45:14.689Z,14.27
2018-11-02T20:47:51.065Z,14.30
2018-11-02T20:50:19.855Z,12.03
2018-11-02T20:52:48.867Z,9.37
2018-11-02T20:55:17.897Z,10.27
2018-11-02T20:57:46.650Z,9.53
2018-11-02T21:00:17.683Z,11.23
2018-11-02T21:02:46.577Z,11.73
2018-11-02T21:05:16.420Z,10.70
2018-11-02T21:07:45.692Z,12.73
2018-11-02T21:10:15.541Z,12.63
2018-11-02T21:12:44.348Z,11.90
2018-11-02T21:15:15.320Z,12.67
2018-11-02T21:17:44.117Z,11.50
2018-11-02T21:20:14.347Z,10.87
2018-11-02T21:22:43.368Z,11.53
2018-11-02T21:25:12.773Z,12.03
2018-11-02T21:27:42.264Z,12.20
2018-11-02T21:30:13.420Z,12.50
2018-11-02T21:32:42.628Z,11.90
2018-11-02T21:35:11.407Z,11.10
2018-11-02T21:37:40.219Z,11.20
2018-11-02T21:40:11.788Z,12.00
2018-11-02T21:42:40.708Z,13.07
2018-11-02T21:45:09.661Z,12.73
2018-11-02T21:47:38.419Z,12.07
2018-11-02T21:50:07.583Z,14.23
2018-11-02T21:52:36.368Z,17.30
2018-11-02T21:55:05.663Z,18.20
2018-11-02T21:57:34.491Z,18.13
2018-11-02T22:00:03.468Z,14.67
2018-11-02T22:02:32.248Z,15.17
2018-11-02T22:05:01.030Z,13.27
2018-11-02T22:07:29.796Z,11.50
2018-11-02T22:09:58.564Z,13.00
2018-11-02T22:12:27.490Z,11.60
2018-11-02T22:14:56.256Z,11.30
2018-11-02T22:17:25.082Z,10.63
2018-11-02T22:19:53.848Z,10.20
2018-11-02T22:22:22.639Z,9.67
2018-11-02T22:24:51.412Z,9.30
2018-11-02T22:27:20.423Z,10.53
2018-11-02T22:29:49.103Z,12.13
2018-11-02T22:32:17.991Z,12.63
2018-11-02T22:34:46.843Z,11.57
2018-11-02T22:37:15.711Z,15.40
2018-11-02T22:39:44.510Z,12.87
2018-11-02T22:42:13.441Z,12.10
2018-11-02T22:44:42.231Z,10.80
2018-11-02T22:47:11.103Z,10.17
2018-11-02T22:49:39.953Z,10.27
2018-11-02T22:52:08.712Z,11.20
2018-11-02T22:54:37.612Z,12.30
2018-11-02T22:57:06.533Z,12.30
2018-11-02T22:59:35.328Z,12.10
2018-11-02T23:02:04.242Z,11.20
2018-11-02T23:04:33.028Z,12.90
2018-11-02T23:07:01.990Z,14.63
2018-11-02T23:09:30.755Z,11.37
2018-11-02T23:11:59.544Z,11.50
2018-11-02T23:14:28.402Z,11.50
2018-11-02T23:16:57.408Z,12.00
2018-11-02T23:19:26.388Z,12.17
2018-11-02T23:21:55.348Z,12.40
2018-11-02T23:24:24.166Z,16.13
2018-11-02T23:26:53.143Z,17.47
2018-11-02T23:29:22.078Z,15.57
2018-11-02T23:31:50.867Z,14.07
2018-11-02T23:34:19.641Z,13.00
2018-11-02T23:36:48.428Z,11.13
2018-11-02T23:39:17.217Z,10.23
2018-11-02T23:41:46.048Z,11.37
2018-11-02T23:44:15.552Z,11.00
2018-11-02T23:46:44.367Z,11.77
2018-11-02T23:49:13.133Z,11.50
2018-11-02T23:51:41.976Z,13.03
2018-11-02T23:54:10.924Z,14.13
2018-11-02T23:56:39.682Z,13.77
2018-11-02T23:59:08.460Z,10.50
